createdAt,value
2023-05-22T00:01:06.630Z,99.90
2023-05-22T00:03:36.303Z,99.90
2023-05-22T00:06:06.165Z,99.90
2023-05-22T00:08:34.386Z,99.90
2023-05-22T00:11:02.519Z,99.90
2023-05-22T00:13:30.882Z,99.90
2023-05-22T00:16:00.365Z,99.90
2023-05-22T00:18:28.394Z,99.90
2023-05-22T00:20:56.599Z,99.90
2023-05-22T00:23:25.945Z,99.90
2023-05-22T00:25:53.989Z,99.90
2023-05-22T00:28:22.534Z,99.90
2023-05-22T00:30:50.615Z,99.90
2023-05-22T00:33:20.046Z,99.90
2023-05-22T00:35:48.300Z,99.90
2023-05-22T00:38:30.642Z,99.90
2023-05-22T00:40:59.081Z,99.90
2023-05-22T00:43:28.006Z,99.90
2023-05-22T00:45:56.460Z,99.90
2023-05-22T00:48:26.258Z,99.90
2023-05-22T00:50:59.958Z,99.90
2023-05-22T00:53:30.834Z,99.90
2023-05-22T00:56:00.992Z,99.90
2023-05-22T00:58:29.097Z,99.90
2023-05-22T01:00:59.514Z,99.90
2023-05-22T01:03:29.956Z,99.90
2023-05-22T01:05:58.225Z,99.90
2023-05-22T01:08:26.933Z,99.90
2023-05-22T01:11:00.133Z,99.90
2023-05-22T01:13:35.186Z,99.90
2023-05-22T01:16:11.998Z,99.90
2023-05-22T01:18:47.774Z,99.90
2023-05-22T01:21:23.090Z,99.90
2023-05-22T01:24:17.964Z,99.90
2023-05-22T01:27:15.808Z,99.90
2023-05-22T01:29:47.620Z,99.90
2023-05-22T01:32:21.595Z,99.90
2023-05-22T01:34:53.294Z,99.90
2023-05-22T01:37:24.250Z,99.90
2023-05-22T01:39:54.534Z,99.90
2023-05-22T01:42:23.013Z,99.90
2023-05-22T01:44:51.124Z,99.90
2023-05-22T01:47:20.906Z,99.90
2023-05-22T01:49:49.044Z,99.90
2023-05-22T01:52:23.814Z,99.90
2023-05-22T01:54:58.887Z,99.90
2023-05-22T01:57:31.953Z,99.90
2023-05-22T02:00:07.417Z,99.90
2023-05-22T02:02:49.876Z,99.90
2023-05-22T02:05:21.460Z,99.90
2023-05-22T02:07:50.320Z,99.90
2023-05-22T02:10:21.490Z,99.90
2023-05-22T02:12:50.224Z,99.90
2023-05-22T02:15:18.739Z,99.90
2023-05-22T02:17:49.572Z,99.90
2023-05-22T02:20:18.020Z,99.90
2023-05-22T02:22:47.427Z,99.90
2023-05-22T02:25:17.241Z,99.90
2023-05-22T02:27:47.268Z,99.90
2023-05-22T02:30:16.463Z,99.90
2023-05-22T02:32:48.331Z,99.90
2023-05-22T02:35:16.372Z,99.90
2023-05-22T02:37:44.481Z,99.90
2023-05-22T02:40:13.034Z,99.90
2023-05-22T02:42:41.048Z,99.90
2023-05-22T02:45:10.520Z,99.90
2023-05-22T02:47:38.762Z,99.90
2023-05-22T02:50:09.519Z,99.90
2023-05-22T02:52:39.279Z,99.90
2023-05-22T02:55:08.574Z,99.90
2023-05-22T02:57:36.722Z,99.90
2023-05-22T03:00:06.887Z,99.90
2023-05-22T03:02:36.618Z,99.90
2023-05-22T03:05:05.411Z,99.90
2023-05-22T03:07:34.861Z,99.90
2023-05-22T03:10:02.967Z,99.90
2023-05-22T03:12:31.091Z,99.90
2023-05-22T03:14:59.658Z,99.90
2023-05-22T03:17:27.740Z,99.90
2023-05-22T03:19:55.831Z,99.90
2023-05-22T03:22:23.931Z,99.90
2023-05-22T03:24:53.632Z,99.90
2023-05-22T03:27:21.693Z,99.90
2023-05-22T03:29:51.757Z,99.90
2023-05-22T03:32:20.741Z,99.90
2023-05-22T03:34:49.003Z,99.90
2023-05-22T03:37:17.109Z,99.90
2023-05-22T03:39:45.384Z,99.90
2023-05-22T03:42:28.634Z,99.90
2023-05-22T03:44:58.065Z,99.90
2023-05-22T03:47:27.135Z,99.90
2023-05-22T03:49:55.276Z,99.90
2023-05-22T03:52:24.114Z,99.90
2023-05-22T03:54:53.476Z,99.90
2023-05-22T03:57:21.537Z,99.90
2023-05-22T03:59:51.030Z,99.90
2023-05-22T04:02:19.192Z,99.90
2023-05-22T04:04:48.544Z,99.90
2023-05-22T04:07:18.463Z,99.90
2023-05-22T04:09:46.637Z,99.90
2023-05-22T04:12:14.673Z,99.90
2023-05-22T04:14:43.976Z,99.90
2023-05-22T04:17:13.321Z,99.90
2023-05-22T04:19:41.407Z,99.90
2023-05-22T04:22:09.426Z,99.90
2023-05-22T04:24:39.774Z,99.90
2023-05-22T04:27:07.925Z,99.90
2023-05-22T04:29:36.345Z,99.90
2023-05-22T04:32:06.263Z,99.90
2023-05-22T04:34:37.432Z,99.90
2023-05-22T04:37:06.287Z,99.90
2023-05-22T04:39:34.506Z,99.90
2023-05-22T04:42:05.797Z,99.90
2023-05-22T04:44:35.304Z,99.90
2023-05-22T04:47:05.960Z,99.90
2023-05-22T04:49:36.882Z,99.90
2023-05-22T04:52:07.334Z,99.90
2023-05-22T04:54:36.150Z,99.90
2023-05-22T04:57:04.468Z,99.90
2023-05-22T04:59:33.504Z,99.90
2023-05-22T05:02:01.711Z,99.90
2023-05-22T05:04:29.745Z,99.90
2023-05-22T05:06:59.106Z,99.90
2023-05-22T05:09:27.225Z,99.90
2023-05-22T05:11:56.668Z,99.90
2023-05-22T05:14:24.965Z,99.90
2023-05-22T05:16:53.578Z,99.90
2023-05-22T05:19:22.143Z,99.90
2023-05-22T05:21:51.026Z,99.90
2023-05-22T05:24:20.813Z,99.90
2023-05-22T05:26:50.797Z,99.90
2023-05-22T05:29:20.785Z,99.90
2023-05-22T05:32:06.500Z,99.90
2023-05-22T05:34:49.696Z,99.90
2023-05-22T05:37:22.723Z,99.90
2023-05-22T05:39:53.022Z,99.90
2023-05-22T05:42:21.686Z,99.90
2023-05-22T05:44:50.637Z,99.90
2023-05-22T05:47:23.977Z,99.90
2023-05-22T05:49:55.111Z,99.90
2023-05-22T05:52:26.445Z,99.90
2023-05-22T05:54:56.385Z,99.90
2023-05-22T05:57:24.446Z,99.90
2023-05-22T05:59:54.906Z,99.40
2023-05-22T06:02:43.735Z,96.90
2023-05-22T06:05:31.700Z,83.20
2023-05-22T06:08:22.588Z,90.60
2023-05-22T06:10:52.384Z,79.10
2023-05-22T06:13:34.346Z,90.30
2023-05-22T06:16:05.686Z,65.20
2023-05-22T06:18:35.616Z,69.20
2023-05-22T06:21:03.748Z,67.00
2023-05-22T06:23:32.356Z,55.00
2023-05-22T06:26:02.542Z,57.90
2023-05-22T06:28:31.327Z,49.00
2023-05-22T06:31:01.860Z,50.70
2023-05-22T06:33:31.044Z,46.40
2023-05-22T06:35:59.302Z,46.50
2023-05-22T06:38:27.701Z,45.10
2023-05-22T06:40:55.970Z,43.60
2023-05-22T06:43:28.521Z,49.20
2023-05-22T06:46:03.260Z,49.80
2023-05-22T06:48:34.952Z,44.90
2023-05-22T06:51:12.813Z,50.50
2023-05-22T06:53:42.512Z,47.40
2023-05-22T06:56:18.659Z,47.30
2023-05-22T06:58:57.109Z,43.50
2023-05-22T07:01:33.216Z,42.40
2023-05-22T07:04:13.228Z,43.90
2023-05-22T07:06:51.181Z,42.70
2023-05-22T07:09:21.007Z,53.90
2023-05-22T07:11:50.274Z,44.30
2023-05-22T07:14:19.641Z,39.30
2023-05-22T07:16:47.748Z,36.30
2023-05-22T07:19:21.366Z,43.60
2023-05-22T07:21:49.503Z,37.60
2023-05-22T07:24:20.532Z,38.40
2023-05-22T07:26:49.458Z,33.90
2023-05-22T07:29:21.934Z,29.20
2023-05-22T07:31:54.110Z,34.70
2023-05-22T07:34:29.914Z,29.90
2023-05-22T07:36:58.424Z,32.90
2023-05-22T07:39:26.626Z,29.00
2023-05-22T07:41:56.957Z,27.00
2023-05-22T07:44:26.994Z,26.40
2023-05-22T07:46:55.678Z,29.00
2023-05-22T07:49:24.990Z,26.50
2023-05-22T07:51:53.358Z,26.90
2023-05-22T07:54:24.881Z,27.40
2023-05-22T07:56:56.143Z,28.60
2023-05-22T07:59:26.713Z,27.10
2023-05-22T08:01:58.975Z,26.00
2023-05-22T08:04:27.573Z,25.80
2023-05-22T08:06:55.907Z,24.10
2023-05-22T08:09:24.303Z,24.90
2023-05-22T08:11:52.386Z,24.00
2023-05-22T08:14:22.417Z,21.70
2023-05-22T08:16:51.902Z,22.50
2023-05-22T08:19:20.147Z,21.70
2023-05-22T08:21:48.285Z,20.10
2023-05-22T08:24:16.498Z,20.80
2023-05-22T08:26:44.562Z,20.50
2023-05-22T08:29:12.648Z,22.10
2023-05-22T08:31:40.803Z,21.80
2023-05-22T08:34:11.109Z,20.30
2023-05-22T08:36:39.526Z,20.50
2023-05-22T08:39:08.735Z,21.70
2023-05-22T08:41:36.981Z,20.80
2023-05-22T08:44:05.615Z,20.70
2023-05-22T08:46:37.923Z,19.70
2023-05-22T08:49:06.798Z,18.70
2023-05-22T08:51:40.077Z,16.50
2023-05-22T08:54:08.732Z,16.70
2023-05-22T08:56:42.683Z,19.30
2023-05-22T08:59:18.448Z,18.10
2023-05-22T09:01:47.561Z,16.20
2023-05-22T09:04:16.064Z,18.30
2023-05-22T09:06:48.430Z,18.20
2023-05-22T09:09:16.610Z,15.90
2023-05-22T09:11:45.116Z,15.50
2023-05-22T09:14:13.704Z,14.80
2023-05-22T09:16:48.857Z,15.70
2023-05-22T09:19:17.099Z,16.20
2023-05-22T09:21:48.055Z,14.90
2023-05-22T09:24:16.423Z,15.60
2023-05-22T09:26:44.568Z,16.00
2023-05-22T09:29:12.866Z,15.20
2023-05-22T09:31:43.393Z,15.90
2023-05-22T09:34:14.317Z,16.00
2023-05-22T09:36:43.113Z,15.30
2023-05-22T09:39:12.647Z,15.70
2023-05-22T09:41:41.541Z,17.10
2023-05-22T09:44:16.937Z,16.10
2023-05-22T09:46:48.014Z,15.70
2023-05-22T09:49:17.074Z,17.80
2023-05-22T09:51:48.694Z,17.70
2023-05-22T09:54:21.694Z,18.50
2023-05-22T09:56:51.305Z,17.60
2023-05-22T09:59:23.432Z,18.50
2023-05-22T10:01:52.181Z,20.90
2023-05-22T10:04:22.989Z,21.20
2023-05-22T10:06:53.719Z,21.00
2023-05-22T10:09:30.601Z,21.20
2023-05-22T10:12:04.268Z,19.10
2023-05-22T10:14:32.813Z,18.90
2023-05-22T10:17:03.106Z,17.20
2023-05-22T10:19:33.032Z,15.90
2023-05-22T10:22:02.352Z,16.00
2023-05-22T10:24:32.551Z,16.40
2023-05-22T10:27:00.905Z,16.50
2023-05-22T10:29:37.238Z,18.70
2023-05-22T10:32:13.866Z,16.20
2023-05-22T10:34:55.377Z,16.00
2023-05-22T10:37:43.515Z,16.20
2023-05-22T10:40:15.850Z,15.70
2023-05-22T10:42:44.868Z,16.70
2023-05-22T10:45:13.217Z,17.70
2023-05-22T10:47:41.383Z,17.50
2023-05-22T10:50:10.984Z,18.70
2023-05-22T10:52:40.775Z,18.50
2023-05-22T10:55:10.255Z,16.40
2023-05-22T10:57:40.700Z,14.20
2023-05-22T11:00:11.034Z,13.90
2023-05-22T11:02:44.030Z,14.10
2023-05-22T11:05:36.705Z,15.80
2023-05-22T11:08:39.014Z,14.70
2023-05-22T11:11:16.230Z,13.40
2023-05-22T11:13:52.411Z,13.70
2023-05-22T11:16:20.647Z,15.50
2023-05-22T11:18:48.803Z,14.30
2023-05-22T11:21:17.176Z,15.30
2023-05-22T11:23:46.422Z,16.30
2023-05-22T11:26:25.364Z,15.50
2023-05-22T11:28:57.364Z,14.90
2023-05-22T11:31:26.841Z,15.60
2023-05-22T11:33:55.276Z,13.90
2023-05-22T11:36:24.430Z,13.50
2023-05-22T11:38:52.617Z,13.10
2023-05-22T11:41:21.640Z,14.20
2023-05-22T11:43:49.767Z,14.90
2023-05-22T11:46:19.451Z,14.10
2023-05-22T11:48:48.936Z,15.00
2023-05-22T11:51:20.457Z,13.90
2023-05-22T11:53:49.047Z,14.60
2023-05-22T11:56:21.584Z,15.50
2023-05-22T11:58:49.809Z,14.70
2023-05-22T12:01:19.391Z,12.80
2023-05-22T12:03:47.534Z,13.20
2023-05-22T12:06:17.450Z,15.70
2023-05-22T12:08:45.883Z,14.30
2023-05-22T12:11:13.991Z,16.50
2023-05-22T12:13:42.118Z,15.90
2023-05-22T12:16:22.883Z,16.20
2023-05-22T12:18:54.492Z,17.00
2023-05-22T12:21:23.632Z,17.50
2023-05-22T12:23:52.396Z,17.70
2023-05-22T12:26:21.458Z,18.40
2023-05-22T12:28:49.549Z,18.00
2023-05-22T12:31:23.209Z,17.60
2023-05-22T12:33:54.983Z,15.50
2023-05-22T12:36:23.226Z,15.30
2023-05-22T12:38:51.848Z,15.40
2023-05-22T12:41:20.036Z,15.90
2023-05-22T12:43:48.070Z,14.80
2023-05-22T12:46:16.171Z,16.60
2023-05-22T12:48:45.768Z,14.20
2023-05-22T12:51:13.861Z,14.10
2023-05-22T12:53:41.882Z,13.20
2023-05-22T12:56:12.008Z,13.40
2023-05-22T12:58:43.846Z,13.10
2023-05-22T13:01:12.258Z,15.50
2023-05-22T13:03:43.157Z,15.00
2023-05-22T13:06:13.442Z,14.80
2023-05-22T13:08:41.658Z,14.70
2023-05-22T13:11:10.401Z,16.90
2023-05-22T13:13:38.660Z,14.30
2023-05-22T13:16:07.045Z,15.90
2023-05-22T13:18:35.178Z,15.50
2023-05-22T13:21:03.602Z,15.40
2023-05-22T13:23:33.235Z,16.20
2023-05-22T13:26:03.139Z,16.30
2023-05-22T13:28:31.189Z,14.90
2023-05-22T13:30:59.900Z,12.90
2023-05-22T13:33:28.060Z,13.90
2023-05-22T13:35:56.188Z,13.70
2023-05-22T13:38:24.262Z,15.60
2023-05-22T13:40:53.784Z,14.10
2023-05-22T13:43:21.902Z,14.00
2023-05-22T13:45:50.074Z,14.20
2023-05-22T13:48:18.228Z,14.10
2023-05-22T13:50:46.288Z,15.20
2023-05-22T13:53:14.505Z,13.60
2023-05-22T13:55:42.747Z,13.90
2023-05-22T13:58:12.234Z,13.00
2023-05-22T14:00:40.392Z,14.90
2023-05-22T14:03:08.608Z,12.80
2023-05-22T14:05:36.829Z,15.10
2023-05-22T14:08:04.931Z,13.30
2023-05-22T14:10:34.507Z,14.40
2023-05-22T14:13:02.758Z,13.10
2023-05-22T14:15:32.230Z,14.60
2023-05-22T14:18:00.423Z,12.00
2023-05-22T14:20:28.508Z,12.50
2023-05-22T14:22:58.378Z,13.50
2023-05-22T14:25:26.877Z,13.90
2023-05-22T14:27:55.134Z,12.40
2023-05-22T14:30:23.272Z,12.50
2023-05-22T14:32:52.790Z,13.40
2023-05-22T14:35:20.944Z,13.60
2023-05-22T14:37:49.104Z,14.20
2023-05-22T14:40:17.280Z,14.70
2023-05-22T14:42:45.420Z,15.50
2023-05-22T14:45:13.760Z,15.70
2023-05-22T14:47:43.149Z,17.50
2023-05-22T14:50:19.931Z,16.60
2023-05-22T14:52:49.128Z,18.00
2023-05-22T14:55:18.082Z,18.40
2023-05-22T14:57:46.257Z,18.60
2023-05-22T15:00:15.507Z,14.50
2023-05-22T15:02:43.860Z,15.90
2023-05-22T15:05:13.953Z,14.90
2023-05-22T15:07:45.579Z,14.50
2023-05-22T15:10:14.490Z,14.80
2023-05-22T15:12:42.635Z,13.90
2023-05-22T15:15:11.400Z,12.90
2023-05-22T15:17:42.419Z,14.30
2023-05-22T15:20:13.088Z,13.90
2023-05-22T15:22:41.279Z,13.30
2023-05-22T15:25:12.889Z,14.10
2023-05-22T15:27:41.120Z,14.00
2023-05-22T15:30:10.702Z,14.20
2023-05-22T15:32:39.069Z,14.80
2023-05-22T15:35:09.073Z,14.50
2023-05-22T15:37:38.530Z,15.30
2023-05-22T15:40:09.620Z,14.10
2023-05-22T15:42:38.201Z,16.70
2023-05-22T15:45:07.216Z,14.30
2023-05-22T15:47:35.292Z,13.90
2023-05-22T15:50:03.732Z,15.20
2023-05-22T15:52:31.802Z,14.40
2023-05-22T15:55:01.295Z,14.10
2023-05-22T15:57:29.596Z,14.20
2023-05-22T15:59:58.048Z,13.50
2023-05-22T16:02:26.684Z,15.20
2023-05-22T16:04:54.904Z,14.70
2023-05-22T16:07:22.984Z,14.60
2023-05-22T16:09:51.198Z,14.70
2023-05-22T16:12:21.084Z,14.30
2023-05-22T16:14:49.632Z,15.20
2023-05-22T16:17:17.943Z,15.80
2023-05-22T16:19:45.971Z,15.40
2023-05-22T16:22:14.009Z,14.70
2023-05-22T16:24:42.080Z,14.70
2023-05-22T16:27:10.140Z,15.30
2023-05-22T16:29:39.592Z,16.60
2023-05-22T16:32:08.414Z,16.40
2023-05-22T16:34:36.565Z,16.90
2023-05-22T16:37:04.785Z,18.20
2023-05-22T16:39:33.103Z,17.70
2023-05-22T16:42:02.132Z,18.30
2023-05-22T16:44:30.186Z,18.70
2023-05-22T16:46:59.687Z,18.60
2023-05-22T16:49:27.953Z,18.80
2023-05-22T16:51:56.476Z,19.10
2023-05-22T16:54:24.503Z,19.70
2023-05-22T16:56:52.620Z,20.10
2023-05-22T16:59:20.703Z,20.80
2023-05-22T17:01:49.042Z,21.30
2023-05-22T17:04:20.595Z,21.00
2023-05-22T17:06:49.234Z,20.90
2023-05-22T17:09:18.506Z,21.30
2023-05-22T17:11:46.720Z,22.80
2023-05-22T17:14:14.791Z,23.70
2023-05-22T17:16:42.891Z,22.50
2023-05-22T17:19:11.014Z,22.60
2023-05-22T17:21:40.626Z,22.90
2023-05-22T17:24:12.063Z,23.90
2023-05-22T17:26:41.556Z,23.70
2023-05-22T17:29:10.916Z,24.20
2023-05-22T17:31:39.694Z,24.60
2023-05-22T17:34:10.987Z,25.10
2023-05-22T17:36:41.498Z,24.80
2023-05-22T17:39:11.432Z,25.20
2023-05-22T17:41:39.487Z,25.20
2023-05-22T17:44:07.557Z,26.30
2023-05-22T17:46:35.689Z,25.70
2023-05-22T17:49:04.000Z,26.30
2023-05-22T17:51:32.273Z,25.70
2023-05-22T17:54:01.781Z,26.10
2023-05-22T17:56:30.141Z,26.30
2023-05-22T17:58:58.512Z,25.90
2023-05-22T18:01:28.758Z,26.00
2023-05-22T18:03:57.218Z,26.20
2023-05-22T18:06:28.218Z,26.80
2023-05-22T18:08:56.987Z,26.80
2023-05-22T18:11:26.616Z,26.90
2023-05-22T18:13:54.918Z,27.10
2023-05-22T18:16:23.077Z,27.60
2023-05-22T18:18:51.120Z,27.60
2023-05-22T18:21:19.383Z,27.90
2023-05-22T18:23:47.420Z,28.10
2023-05-22T18:26:17.493Z,28.90
2023-05-22T18:28:48.315Z,29.20
2023-05-22T18:31:16.689Z,29.30
2023-05-22T18:33:46.570Z,29.70
2023-05-22T18:36:14.761Z,29.90
2023-05-22T18:38:43.199Z,30.30
2023-05-22T18:41:11.378Z,30.90
2023-05-22T18:43:39.537Z,31.40
2023-05-22T18:46:08.966Z,32.20
2023-05-22T18:48:37.207Z,32.60
2023-05-22T18:51:05.581Z,34.30
2023-05-22T18:53:33.741Z,36.00
2023-05-22T18:56:02.001Z,38.30
2023-05-22T18:58:30.151Z,41.80
2023-05-22T19:00:58.438Z,43.90
2023-05-22T19:03:28.130Z,46.60
2023-05-22T19:05:58.124Z,48.40
2023-05-22T19:08:27.102Z,49.80
2023-05-22T19:10:57.458Z,51.50
2023-05-22T19:13:26.002Z,53.70
2023-05-22T19:15:54.102Z,56.20
2023-05-22T19:18:22.112Z,60.20
2023-05-22T19:20:51.519Z,63.50
2023-05-22T19:23:20.128Z,66.00
2023-05-22T19:25:49.124Z,68.70
2023-05-22T19:28:17.668Z,71.20
2023-05-22T19:30:46.025Z,73.30
2023-05-22T19:33:16.314Z,75.60
2023-05-22T19:35:44.599Z,77.40
2023-05-22T19:38:14.167Z,81.30
2023-05-22T19:40:42.376Z,85.90
2023-05-22T19:43:10.589Z,90.40
2023-05-22T19:45:38.781Z,92.70
2023-05-22T19:48:07.239Z,93.90
2023-05-22T19:50:36.397Z,94.30
2023-05-22T19:53:04.945Z,94.70
2023-05-22T19:55:34.369Z,95.80
2023-05-22T19:58:02.543Z,99.90
2023-05-22T20:00:31.804Z,99.90
2023-05-22T20:03:00.309Z,99.90
2023-05-22T20:05:28.542Z,99.90
2023-05-22T20:07:58.685Z,99.90
2023-05-22T20:10:26.908Z,99.90
2023-05-22T20:12:56.969Z,99.90
2023-05-22T20:15:25.068Z,99.90
2023-05-22T20:17:54.548Z,99.90
2023-05-22T20:20:23.845Z,99.90
2023-05-22T20:22:53.726Z,99.90
2023-05-22T20:25:22.225Z,99.90
2023-05-22T20:27:50.795Z,99.90
2023-05-22T20:30:20.529Z,99.90
2023-05-22T20:32:48.806Z,99.90
2023-05-22T20:35:18.561Z,99.90
2023-05-22T20:37:47.595Z,99.90
2023-05-22T20:40:16.149Z,99.90
2023-05-22T20:42:44.641Z,99.90
2023-05-22T20:45:15.833Z,99.90
2023-05-22T20:47:46.146Z,99.90
2023-05-22T20:50:15.582Z,99.90
2023-05-22T20:52:45.901Z,99.90
2023-05-22T20:55:14.382Z,99.90
2023-05-22T20:57:42.501Z,99.90
2023-05-22T21:00:13.897Z,99.90
2023-05-22T21:02:42.505Z,99.90
2023-05-22T21:05:12.393Z,99.90
2023-05-22T21:07:40.597Z,99.90
2023-05-22T21:10:09.882Z,99.90
2023-05-22T21:12:37.978Z,99.90
2023-05-22T21:15:07.093Z,99.90
2023-05-22T21:17:35.884Z,99.90
2023-05-22T21:20:05.894Z,99.90
2023-05-22T21:22:35.552Z,99.90
2023-05-22T21:25:03.776Z,99.90
2023-05-22T21:27:31.915Z,99.90
2023-05-22T21:30:00.019Z,99.90
2023-05-22T21:32:28.332Z,99.90
2023-05-22T21:34:56.598Z,99.90
2023-05-22T21:37:25.687Z,99.90
2023-05-22T21:39:55.297Z,99.90
2023-05-22T21:42:25.793Z,99.90
2023-05-22T21:44:54.200Z,99.90
2023-05-22T21:47:22.256Z,99.90
2023-05-22T21:49:50.381Z,99.90
2023-05-22T21:52:18.512Z,99.90
2023-05-22T21:54:46.592Z,99.90
2023-05-22T21:57:16.196Z,99.90
2023-05-22T21:59:44.232Z,99.90
2023-05-22T22:02:13.749Z,99.90
2023-05-22T22:04:41.768Z,99.90
2023-05-22T22:07:10.070Z,99.90
2023-05-22T22:09:38.133Z,99.90
2023-05-22T22:12:07.132Z,99.90
2023-05-22T22:14:36.582Z,99.90
2023-05-22T22:17:05.945Z,99.90
2023-05-22T22:19:36.023Z,99.90
2023-05-22T22:22:04.456Z,99.90
2023-05-22T22:24:32.489Z,99.90
2023-05-22T22:27:00.505Z,99.90
2023-05-22T22:29:28.602Z,99.90
2023-05-22T22:31:58.010Z,99.90
2023-05-22T22:34:26.139Z,99.90
2023-05-22T22:36:54.292Z,99.90
2023-05-22T22:39:22.403Z,99.90
2023-05-22T22:41:50.554Z,99.90
2023-05-22T22:44:18.753Z,99.90
2023-05-22T22:46:46.840Z,99.90
2023-05-22T22:49:16.327Z,99.90
2023-05-22T22:51:44.823Z,99.90
2023-05-22T22:54:15.139Z,99.90
2023-05-22T22:56:43.216Z,99.90
2023-05-22T22:59:11.257Z,99.90
2023-05-22T23:01:39.372Z,99.90
2023-05-22T23:04:07.674Z,99.90
2023-05-22T23:06:37.219Z,99.90
2023-05-22T23:09:05.290Z,99.90
2023-05-22T23:11:37.801Z,99.90
2023-05-22T23:14:07.284Z,99.90
2023-05-22T23:16:37.153Z,99.90
2023-05-22T23:19:05.787Z,99.90
2023-05-22T23:21:34.499Z,99.90
2023-05-22T23:24:05.477Z,99.90
2023-05-22T23:26:33.835Z,99.90
2023-05-22T23:29:02.320Z,99.90
2023-05-22T23:31:31.224Z,99.90
2023-05-22T23:33:59.690Z,99.90
2023-05-22T23:36:27.734Z,99.90
2023-05-22T23:38:55.766Z,99.90
2023-05-22T23:41:26.000Z,99.90
2023-05-22T23:43:54.148Z,99.90
2023-05-22T23:46:24.398Z,99.90
2023-05-22T23:48:52.762Z,99.90
2023-05-22T23:51:20.794Z,99.90
2023-05-22T23:53:48.990Z,99.90
2023-05-22T23:56:17.163Z,99.90
2023-05-22T23:58:46.491Z,99.90
